createdAt,value
2022-11-24T00:00:03.932Z,26.10
2022-11-24T00:01:03.918Z,27.60
2022-11-24T00:02:04.059Z,25.40
2022-11-24T00:03:04.071Z,23.80
2022-11-24T00:04:03.871Z,24.80
2022-11-24T00:05:03.876Z,26.60
2022-11-24T00:06:03.855Z,24.20
2022-11-24T00:07:03.849Z,27.30
2022-11-24T00:08:03.955Z,22.80
2022-11-24T00:09:03.847Z,26.00
2022-11-24T00:10:03.811Z,25.00
2022-11-24T00:11:03.819Z,25.90
2022-11-24T00:12:03.789Z,23.10
2022-11-24T00:13:03.788Z,24.00
2022-11-24T00:14:03.773Z,23.10
2022-11-24T00:15:03.808Z,21.80
2022-11-24T00:16:03.804Z,24.60
2022-11-24T00:17:03.845Z,22.60
2022-11-24T00:18:03.724Z,22.50
2022-11-24T00:19:03.749Z,19.30
2022-11-24T00:20:03.704Z,24.20
2022-11-24T00:21:03.716Z,20.70
2022-11-24T00:22:03.684Z,22.60
2022-11-24T00:23:03.687Z,24.60
2022-11-24T00:24:03.665Z,26.90
2022-11-24T00:25:03.676Z,21.50
2022-11-24T00:26:03.641Z,23.90
2022-11-24T00:27:03.660Z,24.40
2022-11-24T00:28:03.619Z,19.80
2022-11-24T00:29:03.621Z,20.30
2022-11-24T00:30:03.597Z,21.90
2022-11-24T00:31:03.712Z,22.20
2022-11-24T00:32:03.588Z,23.50
2022-11-24T00:33:03.597Z,22.70
2022-11-24T00:34:03.562Z,22.40
2022-11-24T00:35:03.556Z,23.90
2022-11-24T00:36:03.558Z,20.70
2022-11-24T00:37:03.530Z,25.60
2022-11-24T00:38:03.526Z,21.60
2022-11-24T00:39:03.527Z,21.80
2022-11-24T00:40:03.507Z,21.20
2022-11-24T00:41:03.499Z,22.20
2022-11-24T00:42:03.505Z,19.10
2022-11-24T00:43:03.459Z,19.40
2022-11-24T00:44:03.472Z,21.10
2022-11-24T00:45:13.167Z,21.90
2022-11-24T00:46:03.577Z,22.50
2022-11-24T00:47:03.571Z,25.10
2022-11-24T00:48:03.435Z,25.20
2022-11-24T00:49:03.397Z,25.60
2022-11-24T00:50:03.395Z,26.60
2022-11-24T00:51:03.401Z,31.00
2022-11-24T00:52:03.378Z,29.00
2022-11-24T00:53:03.358Z,34.00
2022-11-24T00:54:03.359Z,28.90
2022-11-24T00:55:03.341Z,29.90
2022-11-24T00:56:03.350Z,27.00
2022-11-24T00:57:03.337Z,28.30
2022-11-24T00:58:03.329Z,26.40
2022-11-24T00:59:03.301Z,32.00
2022-11-24T01:00:03.311Z,21.50
2022-11-24T01:01:03.292Z,26.70
2022-11-24T01:02:03.349Z,30.30
2022-11-24T01:03:03.346Z,35.00
2022-11-24T01:04:03.259Z,27.80
2022-11-24T01:05:03.258Z,24.80
2022-11-24T01:06:03.239Z,24.50
2022-11-24T01:07:03.232Z,27.00
2022-11-24T01:08:03.235Z,32.20
2022-11-24T01:09:03.234Z,25.30
2022-11-24T01:10:03.192Z,26.40
2022-11-24T01:11:03.173Z,26.90
2022-11-24T01:12:03.183Z,24.80
2022-11-24T01:13:03.144Z,26.80
2022-11-24T01:14:03.151Z,28.00
2022-11-24T01:15:03.141Z,26.20
2022-11-24T01:16:03.187Z,21.40
2022-11-24T01:17:03.103Z,24.10
2022-11-24T01:18:03.101Z,24.80
2022-11-24T01:19:03.082Z,27.40
2022-11-24T01:20:03.099Z,25.90
2022-11-24T01:21:08.554Z,22.10
2022-11-24T01:22:03.079Z,24.30
2022-11-24T01:23:03.059Z,27.40
2022-11-24T01:24:03.047Z,26.20
2022-11-24T01:25:03.025Z,27.70
2022-11-24T01:26:03.016Z,26.60
2022-11-24T01:27:03.022Z,24.00
2022-11-24T01:28:03.051Z,26.50
2022-11-24T01:29:02.978Z,23.70
2022-11-24T01:30:02.980Z,22.60
2022-11-24T01:31:03.065Z,25.00
2022-11-24T01:32:02.953Z,23.30
2022-11-24T01:33:02.957Z,24.80
2022-11-24T01:34:02.939Z,27.20
2022-11-24T01:35:02.917Z,24.00
2022-11-24T01:36:02.919Z,21.00
2022-11-24T01:37:02.961Z,24.70
2022-11-24T01:38:02.902Z,28.50
2022-11-24T01:39:02.973Z,23.80
2022-11-24T01:40:02.895Z,27.90
2022-11-24T01:41:02.857Z,24.40
2022-11-24T01:42:02.847Z,25.50
2022-11-24T01:43:02.842Z,23.20
2022-11-24T01:44:02.836Z,24.60
2022-11-24T01:45:02.833Z,22.60
2022-11-24T01:46:02.883Z,21.70
2022-11-24T01:47:02.794Z,25.30
2022-11-24T01:48:02.788Z,24.50
2022-11-24T01:49:02.773Z,23.60
2022-11-24T01:50:02.770Z,25.70
2022-11-24T01:51:02.771Z,24.80
2022-11-24T01:52:02.754Z,24.40
2022-11-24T01:53:02.735Z,27.70
2022-11-24T01:54:02.727Z,23.80
2022-11-24T01:55:02.705Z,22.80
2022-11-24T01:56:02.707Z,26.00
2022-11-24T01:57:02.722Z,26.50
2022-11-24T01:58:02.681Z,24.10
2022-11-24T01:59:02.660Z,26.20
2022-11-24T02:00:02.662Z,22.30
2022-11-24T02:01:02.725Z,29.70
2022-11-24T02:02:02.647Z,22.40
2022-11-24T02:03:02.703Z,23.60
2022-11-24T02:04:02.677Z,21.40
2022-11-24T02:05:02.603Z,22.90
2022-11-24T02:06:02.596Z,26.30
2022-11-24T02:07:02.583Z,24.00
2022-11-24T02:08:02.588Z,23.60
2022-11-24T02:09:02.597Z,24.50
2022-11-24T02:10:02.567Z,24.40
2022-11-24T02:11:02.535Z,24.70
2022-11-24T02:12:02.556Z,25.30
2022-11-24T02:13:02.518Z,26.80
2022-11-24T02:14:02.546Z,22.30
2022-11-24T02:15:02.542Z,20.90
2022-11-24T02:16:02.576Z,23.50
2022-11-24T02:17:02.505Z,22.40
2022-11-24T02:18:02.470Z,23.80
2022-11-24T02:19:02.460Z,19.50
2022-11-24T02:20:02.463Z,24.90
2022-11-24T02:21:02.460Z,25.10
2022-11-24T02:22:02.442Z,25.70
2022-11-24T02:23:02.407Z,26.00
2022-11-24T02:24:02.407Z,21.80
2022-11-24T02:25:02.403Z,26.40
2022-11-24T02:26:02.384Z,27.80
2022-11-24T02:27:02.394Z,19.20
2022-11-24T02:28:02.366Z,20.10
2022-11-24T02:29:02.346Z,21.20
2022-11-24T02:30:02.344Z,23.20
2022-11-24T02:31:02.458Z,27.10
2022-11-24T02:32:02.341Z,22.90
2022-11-24T02:33:02.321Z,21.10
2022-11-24T02:34:02.302Z,23.80
2022-11-24T02:35:02.283Z,23.80
2022-11-24T02:36:02.277Z,23.80
2022-11-24T02:37:02.259Z,23.50
2022-11-24T02:38:02.264Z,23.00
2022-11-24T02:39:02.258Z,23.50
2022-11-24T02:40:02.257Z,26.20
2022-11-24T02:41:02.222Z,25.10
2022-11-24T02:42:02.216Z,21.70
2022-11-24T02:43:02.209Z,22.60
2022-11-24T02:44:02.199Z,25.50
2022-11-24T02:45:02.204Z,21.50
2022-11-24T02:46:02.195Z,22.50
2022-11-24T02:47:02.164Z,22.20
2022-11-24T02:48:02.153Z,23.00
2022-11-24T02:49:02.137Z,24.60
2022-11-24T02:50:02.133Z,23.90
2022-11-24T02:51:02.132Z,22.60
2022-11-24T02:52:02.118Z,22.90
2022-11-24T02:53:02.094Z,21.10
2022-11-24T02:54:02.099Z,19.70
2022-11-24T02:55:02.076Z,18.40
2022-11-24T02:56:02.073Z,21.40
2022-11-24T02:57:02.094Z,22.30
2022-11-24T02:58:02.051Z,23.00
2022-11-24T02:59:02.032Z,21.80
2022-11-24T03:00:02.032Z,21.60
2022-11-24T03:01:02.015Z,23.50
2022-11-24T03:02:02.035Z,22.10
2022-11-24T03:03:02.042Z,25.60
2022-11-24T03:04:01.984Z,21.60
2022-11-24T03:05:01.972Z,21.70
2022-11-24T03:06:01.973Z,20.50
2022-11-24T03:07:01.943Z,21.30
2022-11-24T03:08:01.945Z,23.10
2022-11-24T03:09:01.948Z,18.20
2022-11-24T03:10:01.923Z,21.40
2022-11-24T03:11:01.912Z,18.50
2022-11-24T03:12:01.909Z,22.60
2022-11-24T03:13:01.883Z,25.60
2022-11-24T03:14:01.881Z,21.00
2022-11-24T03:15:01.875Z,20.30
2022-11-24T03:16:01.939Z,19.00
2022-11-24T03:17:01.848Z,20.10
2022-11-24T03:18:01.847Z,22.80
2022-11-24T03:19:01.819Z,20.50
2022-11-24T03:20:04.962Z,20.60
2022-11-24T03:21:01.832Z,23.70
2022-11-24T03:22:01.804Z,22.50
2022-11-24T03:23:01.778Z,21.40
2022-11-24T03:24:01.781Z,21.80
2022-11-24T03:25:01.759Z,20.00
2022-11-24T03:26:01.754Z,19.90
2022-11-24T03:27:01.764Z,22.90
2022-11-24T03:28:01.737Z,21.00
2022-11-24T03:29:01.713Z,21.30
2022-11-24T03:30:01.714Z,21.10
2022-11-24T03:31:01.735Z,20.90
2022-11-24T03:32:01.701Z,20.90
2022-11-24T03:33:01.697Z,19.40
2022-11-24T03:34:01.675Z,21.00
2022-11-24T03:35:01.653Z,20.20
2022-11-24T03:36:01.656Z,20.30
2022-11-24T03:37:01.630Z,23.50
2022-11-24T03:38:01.633Z,22.00
2022-11-24T03:39:01.630Z,24.70
2022-11-24T03:40:01.607Z,19.90
2022-11-24T03:41:01.595Z,20.90
2022-11-24T03:42:01.586Z,20.60
2022-11-24T03:43:01.583Z,22.90
2022-11-24T03:44:01.563Z,22.50
2022-11-24T03:45:16.685Z,23.00
2022-11-24T03:46:01.633Z,21.10
2022-11-24T03:47:01.525Z,21.10
2022-11-24T03:48:01.524Z,19.60
2022-11-24T03:49:01.509Z,18.80
2022-11-24T03:50:01.501Z,21.90
2022-11-24T03:51:01.498Z,20.40
2022-11-24T03:52:06.542Z,20.60
2022-11-24T03:53:01.466Z,21.40
2022-11-24T03:54:01.466Z,21.00
2022-11-24T03:55:01.439Z,18.10
2022-11-24T03:56:01.439Z,20.20
2022-11-24T03:57:01.440Z,21.20
2022-11-24T03:58:01.422Z,23.70
2022-11-24T03:59:01.412Z,23.10
2022-11-24T04:00:01.399Z,21.20
2022-11-24T04:01:01.389Z,20.20
2022-11-24T04:02:01.411Z,22.80
2022-11-24T04:03:01.481Z,22.90
2022-11-24T04:04:01.357Z,23.50
2022-11-24T04:05:01.333Z,23.90
2022-11-24T04:06:01.336Z,23.70
2022-11-24T04:07:01.314Z,20.50
2022-11-24T04:08:01.322Z,20.50
2022-11-24T04:09:01.308Z,17.40
2022-11-24T04:10:01.307Z,18.20
2022-11-24T04:11:01.274Z,17.40
2022-11-24T04:12:01.271Z,19.90
2022-11-24T04:13:01.251Z,20.10
2022-11-24T04:14:01.249Z,20.70
2022-11-24T04:15:01.249Z,23.20
2022-11-24T04:16:01.260Z,19.90
2022-11-24T04:17:01.210Z,21.30
2022-11-24T04:18:01.207Z,20.00
2022-11-24T04:19:01.192Z,19.00
2022-11-24T04:20:01.194Z,21.60
2022-11-24T04:21:01.206Z,17.70
2022-11-24T04:22:01.173Z,17.60
2022-11-24T04:23:01.145Z,19.20
2022-11-24T04:24:01.144Z,17.40
2022-11-24T04:25:01.129Z,20.30
2022-11-24T04:26:01.128Z,20.00
2022-11-24T04:27:01.119Z,20.50
2022-11-24T04:28:01.110Z,19.70
2022-11-24T04:29:01.083Z,19.00
2022-11-24T04:30:01.091Z,20.70
2022-11-24T04:31:01.132Z,24.00
2022-11-24T04:32:01.074Z,21.00
2022-11-24T04:33:01.069Z,23.40
2022-11-24T04:34:01.038Z,23.00
2022-11-24T04:35:01.018Z,21.80
2022-11-24T04:36:01.018Z,20.40
2022-11-24T04:37:01.001Z,23.40
2022-11-24T04:38:00.996Z,20.20
2022-11-24T04:39:19.652Z,20.10
2022-11-24T04:40:00.979Z,20.40
2022-11-24T04:41:00.965Z,20.80
2022-11-24T04:42:00.953Z,24.70
2022-11-24T04:43:00.942Z,21.20
2022-11-24T04:44:00.937Z,23.40
2022-11-24T04:45:00.930Z,22.10
2022-11-24T04:46:00.913Z,20.50
2022-11-24T04:47:00.974Z,20.70
2022-11-24T04:48:00.890Z,21.00
2022-11-24T04:49:00.879Z,19.60
2022-11-24T04:50:00.878Z,17.20
2022-11-24T04:51:00.866Z,21.80
2022-11-24T04:52:00.854Z,21.00
2022-11-24T04:53:00.840Z,21.80
2022-11-24T04:54:00.817Z,22.40
2022-11-24T04:55:00.818Z,20.40
2022-11-24T04:56:00.796Z,22.30
2022-11-24T04:57:00.819Z,21.70
2022-11-24T04:58:00.778Z,22.00
2022-11-24T04:59:05.137Z,25.70
2022-11-24T05:00:00.773Z,21.30
2022-11-24T05:01:00.757Z,22.10
2022-11-24T05:02:00.819Z,24.30
2022-11-24T05:03:00.744Z,23.00
2022-11-24T05:04:00.725Z,18.50
2022-11-24T05:05:00.713Z,23.40
2022-11-24T05:06:00.694Z,22.00
2022-11-24T05:07:00.693Z,22.30
2022-11-24T05:08:00.746Z,26.30
2022-11-24T05:09:00.683Z,21.20
2022-11-24T05:10:00.662Z,25.60
2022-11-24T05:11:00.663Z,20.20
2022-11-24T05:12:00.631Z,19.40
2022-11-24T05:13:00.630Z,24.60
2022-11-24T05:14:00.639Z,18.80
2022-11-24T05:15:00.622Z,18.30
2022-11-24T05:16:00.631Z,26.60
2022-11-24T05:17:00.599Z,22.90
2022-11-24T05:18:00.569Z,24.60
2022-11-24T05:19:00.609Z,20.40
2022-11-24T05:20:00.556Z,25.20
2022-11-24T05:21:00.562Z,26.10
2022-11-24T05:22:00.527Z,20.70
2022-11-24T05:23:00.539Z,24.90
2022-11-24T05:24:00.503Z,22.10
2022-11-24T05:25:00.525Z,26.00
2022-11-24T05:26:00.485Z,26.80
2022-11-24T05:27:00.495Z,40.70
2022-11-24T05:28:00.464Z,40.40
2022-11-24T05:29:00.483Z,50.90
2022-11-24T05:30:00.455Z,65.80
2022-11-24T05:31:00.582Z,54.40
2022-11-24T05:32:00.424Z,69.70
2022-11-24T05:33:00.464Z,92.50
2022-11-24T05:34:00.412Z,68.90
2022-11-24T05:35:00.418Z,64.90
2022-11-24T05:36:00.405Z,112.60
2022-11-24T05:37:00.408Z,88.20
2022-11-24T05:38:00.385Z,55.20
2022-11-24T05:39:00.381Z,57.80
2022-11-24T05:40:00.337Z,47.90
2022-11-24T05:41:00.384Z,57.30
2022-11-24T05:42:00.328Z,57.10
2022-11-24T05:43:00.331Z,65.00
2022-11-24T05:44:00.291Z,55.70
2022-11-24T05:45:00.308Z,55.60
2022-11-24T05:46:00.271Z,53.40
2022-11-24T05:47:00.389Z,56.20
2022-11-24T05:48:00.252Z,54.80
2022-11-24T05:49:00.271Z,57.10
2022-11-24T05:50:00.248Z,50.90
2022-11-24T05:51:01.575Z,50.80
2022-11-24T05:52:00.221Z,60.00
2022-11-24T05:53:00.222Z,56.90
2022-11-24T05:54:00.200Z,52.00
2022-11-24T05:55:00.208Z,58.00
2022-11-24T05:56:00.172Z,57.10
2022-11-24T05:57:00.176Z,58.90
2022-11-24T05:58:00.162Z,53.60
2022-11-24T05:59:03.087Z,58.30
2022-11-24T06:00:00.150Z,51.30
2022-11-24T06:01:00.140Z,59.40
2022-11-24T06:02:00.241Z,54.80
2022-11-24T06:03:00.301Z,59.00
2022-11-24T06:04:00.107Z,58.50
2022-11-24T06:05:00.116Z,59.40
2022-11-24T06:06:00.080Z,60.90
2022-11-24T06:07:00.081Z,55.60
2022-11-24T06:08:00.044Z,60.10
2022-11-24T06:09:00.067Z,56.10
2022-11-24T06:10:00.026Z,59.60
2022-11-24T06:11:00.031Z,56.00
2022-11-24T06:11:59.998Z,56.80
2022-11-24T06:13:00.022Z,49.60
2022-11-24T06:14:00.054Z,58.50
2022-11-24T06:14:59.998Z,54.10
2022-11-24T06:16:00.024Z,57.20
2022-11-24T06:16:59.970Z,51.90
2022-11-24T06:17:59.976Z,56.90
2022-11-24T06:18:59.956Z,60.50
2022-11-24T06:20:00.063Z,52.80
2022-11-24T06:21:10.246Z,59.60
2022-11-24T06:21:59.922Z,53.50
2022-11-24T06:22:59.908Z,55.50
2022-11-24T06:23:59.901Z,57.10
2022-11-24T06:24:59.902Z,57.60
2022-11-24T06:25:59.848Z,61.90
2022-11-24T06:26:59.862Z,63.10
2022-11-24T06:27:59.834Z,59.10
2022-11-24T06:28:59.841Z,56.30
2022-11-24T06:29:59.809Z,63.00
2022-11-24T06:30:59.848Z,57.60
2022-11-24T06:31:59.905Z,52.90
2022-11-24T06:32:59.799Z,65.00
2022-11-24T06:33:59.776Z,56.90
2022-11-24T06:34:59.782Z,61.30
2022-11-24T06:35:59.774Z,57.90
2022-11-24T06:36:59.756Z,51.40
2022-11-24T06:37:59.724Z,58.70
2022-11-24T06:38:59.735Z,52.90
2022-11-24T06:39:59.705Z,59.30
2022-11-24T06:40:59.725Z,52.10
2022-11-24T06:41:59.695Z,55.20
2022-11-24T06:42:59.692Z,60.30
2022-11-24T06:43:59.660Z,61.20
2022-11-24T06:45:00.376Z,50.90
2022-11-24T06:45:59.684Z,58.30
2022-11-24T06:46:59.702Z,61.10
2022-11-24T06:47:59.620Z,59.60
2022-11-24T06:48:59.638Z,61.30
2022-11-24T06:49:59.598Z,57.80
2022-11-24T06:50:59.608Z,59.50
2022-11-24T06:51:59.577Z,64.70
2022-11-24T06:52:59.601Z,65.60
2022-11-24T06:53:59.552Z,66.60
2022-11-24T06:54:59.567Z,65.70
2022-11-24T06:55:59.537Z,68.20
2022-11-24T06:56:59.543Z,60.30
2022-11-24T06:57:59.523Z,64.70
2022-11-24T06:58:59.533Z,65.40
2022-11-24T06:59:59.490Z,62.80
2022-11-24T07:00:59.540Z,66.80
2022-11-24T07:01:59.471Z,58.90
2022-11-24T07:02:59.536Z,64.40
2022-11-24T07:03:59.463Z,64.00
2022-11-24T07:04:59.463Z,64.30
2022-11-24T07:05:59.426Z,63.90
2022-11-24T07:06:59.443Z,71.50
2022-11-24T07:07:59.405Z,69.90
2022-11-24T07:08:59.472Z,62.00
2022-11-24T07:09:59.386Z,67.80
2022-11-24T07:10:59.400Z,63.80
2022-11-24T07:11:59.367Z,67.50
2022-11-24T07:12:59.381Z,65.90
2022-11-24T07:14:00.219Z,67.00
2022-11-24T07:14:59.366Z,75.40
2022-11-24T07:15:59.356Z,70.50
2022-11-24T07:16:59.356Z,70.20
2022-11-24T07:17:59.306Z,68.10
2022-11-24T07:18:59.316Z,65.70
2022-11-24T07:19:59.303Z,75.20
2022-11-24T07:20:59.303Z,73.00
2022-11-24T07:21:59.262Z,68.20
2022-11-24T07:22:59.274Z,75.20
2022-11-24T07:23:59.246Z,70.20
2022-11-24T07:24:59.250Z,75.80
2022-11-24T07:26:03.733Z,78.10
2022-11-24T07:26:59.243Z,67.80
2022-11-24T07:27:59.195Z,67.40
2022-11-24T07:28:59.209Z,76.90
2022-11-24T07:29:59.173Z,65.70
2022-11-24T07:30:59.213Z,65.20
2022-11-24T07:32:04.967Z,66.90
2022-11-24T07:32:59.182Z,63.60
2022-11-24T07:33:59.135Z,65.40
2022-11-24T07:34:59.147Z,65.70
2022-11-24T07:35:59.111Z,68.30
2022-11-24T07:36:59.164Z,75.90
2022-11-24T07:37:59.090Z,68.80
2022-11-24T07:38:59.107Z,70.60
2022-11-24T07:39:59.067Z,71.00
2022-11-24T07:40:59.087Z,66.50
2022-11-24T07:41:59.078Z,66.80
2022-11-24T07:42:59.061Z,68.00
2022-11-24T07:43:59.029Z,71.70
2022-11-24T07:44:59.037Z,63.50
2022-11-24T07:45:59.072Z,66.50
2022-11-24T07:46:59.022Z,64.30
2022-11-24T07:47:59.000Z,71.50
2022-11-24T07:48:58.996Z,72.40
2022-11-24T07:49:58.966Z,69.40
2022-11-24T07:50:58.981Z,68.70
2022-11-24T07:51:58.945Z,74.60
2022-11-24T07:52:58.971Z,65.00
2022-11-24T07:53:58.925Z,65.50
2022-11-24T07:54:58.932Z,65.80
2022-11-24T07:55:58.898Z,69.60
2022-11-24T07:56:58.914Z,73.40
2022-11-24T07:57:58.880Z,68.80
2022-11-24T07:58:58.916Z,64.70
2022-11-24T07:59:58.860Z,69.00
2022-11-24T08:00:58.871Z,66.80
2022-11-24T08:01:58.911Z,70.20
2022-11-24T08:02:58.851Z,67.00
2022-11-24T08:03:58.936Z,66.20
2022-11-24T08:04:58.835Z,71.60
2022-11-24T08:06:58.824Z,63.60
2022-11-24T08:07:58.851Z,64.20
2022-11-24T08:08:58.823Z,62.10
2022-11-24T08:09:58.771Z,58.50
2022-11-24T08:10:58.771Z,57.90
2022-11-24T08:11:58.759Z,58.60
2022-11-24T08:12:58.743Z,64.70
2022-11-24T08:13:58.716Z,56.20
2022-11-24T08:14:58.748Z,56.80
2022-11-24T08:15:58.715Z,52.60
2022-11-24T08:16:58.733Z,47.50
2022-11-24T08:17:58.667Z,41.40
2022-11-24T08:18:58.693Z,46.40
2022-11-24T08:19:58.646Z,47.90
2022-11-24T08:20:58.674Z,50.00
2022-11-24T08:21:58.632Z,39.10
2022-11-24T08:22:58.660Z,45.00
2022-11-24T08:23:58.611Z,40.00
2022-11-24T08:24:58.630Z,41.30
2022-11-24T08:25:58.614Z,42.00
2022-11-24T08:26:58.598Z,37.20
2022-11-24T08:27:58.569Z,31.70
2022-11-24T08:28:58.577Z,32.10
2022-11-24T08:29:58.541Z,28.40
2022-11-24T08:30:58.553Z,34.30
2022-11-24T08:31:58.628Z,30.20
2022-11-24T08:32:58.539Z,25.00
2022-11-24T08:33:58.503Z,22.60
2022-11-24T08:35:13.017Z,26.80
2022-11-24T08:35:58.506Z,26.00
2022-11-24T08:36:58.514Z,24.40
2022-11-24T08:38:04.390Z,23.60
2022-11-24T08:38:58.500Z,22.50
2022-11-24T08:39:58.439Z,20.70
2022-11-24T08:40:58.450Z,21.80
2022-11-24T08:41:58.419Z,24.10
2022-11-24T08:42:58.437Z,24.10
2022-11-24T08:43:58.392Z,22.30
2022-11-24T08:44:59.167Z,21.40
2022-11-24T08:45:58.492Z,22.00
2022-11-24T08:46:58.385Z,19.70
2022-11-24T08:47:58.374Z,23.00
2022-11-24T08:48:58.367Z,23.90
2022-11-24T08:49:58.334Z,20.80
2022-11-24T08:50:58.348Z,18.80
2022-11-24T08:51:58.309Z,20.00
2022-11-24T08:52:58.336Z,19.70
2022-11-24T08:53:58.473Z,16.90
2022-11-24T08:54:58.298Z,19.40
2022-11-24T08:55:58.276Z,19.80
2022-11-24T08:56:58.282Z,20.40
2022-11-24T08:57:58.246Z,17.30
2022-11-24T08:58:58.389Z,19.00
2022-11-24T08:59:58.229Z,19.70
2022-11-24T09:00:58.291Z,20.30
2022-11-24T09:01:58.293Z,21.00
2022-11-24T09:02:58.221Z,21.50
2022-11-24T09:03:58.228Z,23.40
2022-11-24T09:04:58.208Z,20.80
2022-11-24T09:05:58.168Z,19.00
2022-11-24T09:06:58.176Z,16.20
2022-11-24T09:07:58.223Z,15.00
2022-11-24T09:08:58.130Z,20.20
2022-11-24T09:09:58.157Z,15.30
2022-11-24T09:10:58.107Z,19.30
2022-11-24T09:11:58.129Z,17.80
2022-11-24T09:12:58.089Z,21.20
2022-11-24T09:13:58.098Z,21.00
2022-11-24T09:14:58.076Z,18.80
2022-11-24T09:15:58.088Z,16.70
2022-11-24T09:16:58.153Z,18.10
2022-11-24T09:17:58.066Z,17.40
2022-11-24T09:18:58.035Z,16.40
2022-11-24T09:19:58.037Z,15.80
2022-11-24T09:20:58.015Z,16.80
2022-11-24T09:21:58.022Z,19.80
2022-11-24T09:22:57.982Z,15.90
2022-11-24T09:23:57.992Z,17.20
2022-11-24T09:24:57.959Z,18.50
2022-11-24T09:25:57.975Z,17.10
2022-11-24T09:26:57.951Z,16.30
2022-11-24T09:27:57.954Z,18.50
2022-11-24T09:28:57.950Z,18.80
2022-11-24T09:29:57.932Z,20.10
2022-11-24T09:30:57.923Z,17.10
2022-11-24T09:32:02.123Z,17.60
2022-11-24T09:32:57.895Z,18.00
2022-11-24T09:33:57.892Z,17.50
2022-11-24T09:34:57.852Z,14.50
2022-11-24T09:35:57.872Z,16.90
2022-11-24T09:36:57.853Z,15.10
2022-11-24T09:37:57.856Z,14.50
2022-11-24T09:38:57.831Z,15.20
2022-11-24T09:39:57.832Z,16.50
2022-11-24T09:40:58.760Z,16.70
2022-11-24T09:41:57.804Z,13.80
2022-11-24T09:42:57.823Z,13.70
2022-11-24T09:43:57.779Z,14.00
2022-11-24T09:44:57.747Z,31.10
2022-11-24T09:46:05.439Z,21.80
2022-11-24T09:46:57.776Z,12.60
2022-11-24T09:47:57.740Z,14.80
2022-11-24T09:48:57.719Z,16.20
2022-11-24T09:49:57.727Z,13.90
2022-11-24T09:50:57.688Z,13.30
2022-11-24T09:51:57.707Z,13.80
2022-11-24T09:52:57.662Z,11.50
2022-11-24T09:53:57.687Z,13.30
2022-11-24T09:54:57.646Z,13.00
2022-11-24T09:55:57.669Z,12.10
2022-11-24T09:56:57.621Z,9.90
2022-11-24T09:57:57.642Z,14.80
2022-11-24T09:58:57.604Z,11.90
2022-11-24T09:59:57.625Z,12.10
2022-11-24T10:00:57.689Z,11.90
2022-11-24T10:01:57.626Z,10.60
2022-11-24T10:02:57.563Z,11.20
2022-11-24T10:04:02.597Z,12.00
2022-11-24T10:04:57.713Z,12.70
2022-11-24T10:05:57.549Z,11.40
2022-11-24T10:06:57.520Z,13.40
2022-11-24T10:07:57.612Z,12.00
2022-11-24T10:08:57.499Z,14.10
2022-11-24T10:09:57.554Z,12.40
2022-11-24T10:10:57.483Z,14.20
2022-11-24T10:11:57.506Z,13.40
2022-11-24T10:12:57.463Z,15.90
2022-11-24T10:13:57.463Z,23.40
2022-11-24T10:14:57.432Z,29.40
2022-11-24T10:15:57.534Z,34.10
2022-11-24T10:16:57.408Z,28.10
2022-11-24T10:17:57.429Z,21.00
2022-11-24T10:18:57.398Z,23.00
2022-11-24T10:19:57.405Z,30.60
2022-11-24T10:20:57.373Z,31.00
2022-11-24T10:21:57.391Z,32.20
2022-11-24T10:22:57.350Z,22.50
2022-11-24T10:23:57.409Z,22.00
2022-11-24T10:24:57.344Z,20.30
2022-11-24T10:25:57.339Z,20.10
2022-11-24T10:26:57.387Z,19.30
2022-11-24T10:27:57.320Z,22.10
2022-11-24T10:28:57.296Z,23.70
2022-11-24T10:29:57.322Z,22.20
2022-11-24T10:30:57.321Z,19.20
2022-11-24T10:31:57.279Z,23.90
2022-11-24T10:32:57.265Z,20.30
2022-11-24T10:33:57.252Z,16.30
2022-11-24T10:34:57.254Z,17.10
2022-11-24T10:35:57.244Z,21.40
2022-11-24T10:36:57.199Z,19.00
2022-11-24T10:37:57.245Z,24.30
2022-11-24T10:38:57.176Z,22.80
2022-11-24T10:40:00.056Z,23.30
2022-11-24T10:40:58.248Z,16.20
2022-11-24T10:41:57.171Z,21.70
2022-11-24T10:42:57.139Z,21.90
2022-11-24T10:43:57.157Z,21.80
2022-11-24T10:44:57.119Z,21.80
2022-11-24T10:45:57.185Z,13.20
2022-11-24T10:46:57.167Z,18.00
2022-11-24T10:47:57.105Z,18.90
2022-11-24T10:48:57.102Z,16.20
2022-11-24T10:49:57.085Z,17.20
2022-11-24T10:50:57.054Z,18.40
2022-11-24T10:51:57.080Z,13.40
2022-11-24T10:52:57.032Z,21.30
2022-11-24T10:53:59.696Z,18.10
2022-11-24T10:54:57.023Z,20.70
2022-11-24T10:55:57.048Z,16.80
2022-11-24T10:56:57.008Z,17.60
2022-11-24T10:57:57.003Z,15.00
2022-11-24T10:58:56.972Z,17.30
2022-11-24T10:59:57.023Z,17.10
2022-11-24T11:00:57.175Z,19.80
2022-11-24T11:01:57.002Z,17.70
2022-11-24T11:02:57.053Z,20.50
2022-11-24T11:03:56.953Z,19.00
2022-11-24T11:04:56.903Z,21.90
2022-11-24T11:05:56.931Z,21.20
2022-11-24T11:06:56.893Z,25.80
2022-11-24T11:08:00.918Z,17.70
2022-11-24T11:08:56.881Z,18.60
2022-11-24T11:09:56.885Z,21.70
2022-11-24T11:10:56.878Z,21.90
2022-11-24T11:11:59.006Z,19.10
2022-11-24T11:12:56.837Z,19.60
2022-11-24T11:14:02.920Z,22.40
2022-11-24T11:14:56.848Z,20.30
2022-11-24T11:15:56.840Z,21.50
2022-11-24T11:16:56.793Z,21.60
2022-11-24T11:17:56.808Z,19.20
2022-11-24T11:18:56.759Z,19.50
2022-11-24T11:20:01.989Z,22.10
2022-11-24T11:20:56.746Z,17.10
2022-11-24T11:21:56.775Z,22.40
2022-11-24T11:22:56.717Z,22.20
2022-11-24T11:23:56.724Z,18.40
2022-11-24T11:24:56.689Z,20.00
2022-11-24T11:25:56.709Z,19.10
2022-11-24T11:26:56.673Z,20.20
2022-11-24T11:27:56.690Z,21.70
2022-11-24T11:28:56.775Z,19.70
2022-11-24T11:31:16.527Z,22.60
2022-11-24T11:34:06.254Z,23.10
2022-11-24T11:34:56.591Z,21.90
2022-11-24T11:35:56.599Z,21.90
2022-11-24T11:36:56.566Z,19.10
2022-11-24T11:37:56.600Z,16.70
2022-11-24T11:38:56.560Z,20.00
2022-11-24T11:39:56.554Z,18.90
2022-11-24T11:40:56.520Z,21.20
2022-11-24T11:41:56.533Z,19.30
2022-11-24T11:43:04.104Z,20.90
2022-11-24T11:43:56.534Z,18.40
2022-11-24T11:44:56.481Z,18.50
2022-11-24T11:45:56.737Z,19.50
2022-11-24T11:46:56.521Z,23.00
2022-11-24T11:47:56.468Z,22.60
2022-11-24T11:48:56.450Z,22.10
2022-11-24T11:49:56.448Z,18.40
2022-11-24T11:51:56.436Z,25.30
2022-11-24T11:52:56.402Z,22.50
2022-11-24T11:53:56.452Z,20.90
2022-11-24T11:54:56.387Z,18.70
2022-11-24T11:55:56.390Z,16.40
2022-11-24T11:56:56.352Z,18.10
2022-11-24T11:57:56.368Z,15.80
2022-11-24T11:58:56.340Z,16.20
2022-11-24T11:59:56.355Z,19.70
2022-11-24T12:00:56.329Z,27.20
2022-11-24T12:01:56.326Z,22.10
2022-11-24T12:02:56.574Z,26.90
2022-11-24T12:03:56.428Z,23.00
2022-11-24T12:04:56.280Z,23.70
2022-11-24T12:05:56.293Z,22.10
2022-11-24T12:06:56.246Z,19.50
2022-11-24T12:07:56.393Z,17.70
2022-11-24T12:09:19.434Z,18.00
2022-11-24T12:09:56.242Z,16.60
2022-11-24T12:10:56.228Z,19.50
2022-11-24T12:11:56.243Z,19.90
2022-11-24T12:12:56.182Z,18.80
2022-11-24T12:13:56.194Z,16.00
2022-11-24T12:14:56.157Z,17.60
2022-11-24T12:15:56.333Z,16.90
2022-11-24T12:16:56.152Z,16.70
2022-11-24T12:17:56.152Z,17.60
2022-11-24T12:18:57.988Z,20.20
2022-11-24T12:19:56.129Z,18.60
2022-11-24T12:20:56.108Z,19.20
2022-11-24T12:21:56.125Z,18.60
2022-11-24T12:22:56.082Z,18.30
2022-11-24T12:23:56.088Z,16.70
2022-11-24T12:24:56.129Z,17.00
2022-11-24T12:25:56.071Z,17.90
2022-11-24T12:26:56.049Z,18.50
2022-11-24T12:27:56.077Z,20.50
2022-11-24T12:28:56.016Z,18.70
2022-11-24T12:29:56.042Z,19.20
2022-11-24T12:30:56.048Z,16.10
2022-11-24T12:31:56.010Z,14.60
2022-11-24T12:32:55.989Z,19.80
2022-11-24T12:34:00.917Z,15.80
2022-11-24T12:34:55.969Z,21.80
2022-11-24T12:35:55.966Z,15.50
2022-11-24T12:36:55.947Z,17.30
2022-11-24T12:37:55.948Z,17.10
2022-11-24T12:38:55.929Z,16.10
2022-11-24T12:39:55.924Z,16.40
2022-11-24T12:41:18.113Z,18.20
2022-11-24T12:41:55.903Z,14.90
2022-11-24T12:42:55.863Z,15.60
2022-11-24T12:43:55.910Z,18.70
2022-11-24T12:44:55.842Z,18.60
2022-11-24T12:45:55.854Z,15.60
2022-11-24T12:46:55.880Z,17.00
2022-11-24T12:47:55.833Z,17.10
2022-11-24T12:48:55.798Z,17.90
2022-11-24T12:49:55.923Z,21.20
2022-11-24T12:50:55.785Z,19.80
2022-11-24T12:51:55.802Z,19.70
2022-11-24T12:52:59.002Z,15.90
2022-11-24T12:53:55.774Z,17.40
2022-11-24T12:54:55.766Z,18.30
2022-11-24T12:55:55.747Z,17.10
2022-11-24T12:56:55.713Z,18.10